This is the latest recevied weather packets stored in our database for station/object OE6ATD-13. If no packets are shown the sender has not sent any weather packets the latest 10 day(s).
| Time | Temp. | Humidity | Pressure | Rain* | Wind** | Luminosity | Snow |
|---|---|---|---|---|---|---|---|
| 1788505830 | 25.56° C | 57% | 1020.2 hPa | 0 mm | - | 394 W/m² | - |
| 1788505226 | 25° C | 60% | 1020.1 hPa | 0 mm | - | 331 W/m² | - |
| 1788504622 | 25° C | 61% | 1020.2 hPa | 0 mm | - | 282 W/m² | - |
| 1788504017 | 23.89° C | 63% | 1020.2 hPa | 0 mm | - | 280 W/m² | - |
| 1788503438 | 22.78° C | 67% | 1020.2 hPa | 0 mm | - | 250 W/m² | - |
| 1788502825 | 22.22° C | 72% | 1020.3 hPa | 0 mm | - | 218 W/m² | - |
| 1788502220 | 20.56° C | 79% | 1020.4 hPa | 0 mm | - | 155 W/m² | - |
| 1788501616 | 20° C | 80% | 1020.5 hPa | 0 mm | - | 52 W/m² | - |
| 1788501026 | 20.56° C | 80% | 1020.5 hPa | 0 mm | - | 73 W/m² | - |
| 1788500422 | 20.56° C | 82% | 1020.5 hPa | 0 mm | - | 70 W/m² | - |
| 1788499818 | 20° C | 88% | 1020.4 hPa | 0 mm | - | 81 W/m² | - |
| 1788499229 | 18.89° C | 91% | 1020.3 hPa | 0 mm | - | 68 W/m² | - |
| 1788498628 | 18.33° C | 94% | 1020.4 hPa | 0 mm | - | 46 W/m² | - |
| 1788498024 | 17.78° C | 93% | 1020.3 hPa | 0 mm | - | 42 W/m² | - |
| 1788497420 | 16.67° C | 95% | 1020.1 hPa | 0 mm | - | 20 W/m² | - |
| 1788496816 | 16.67° C | 95% | 1020 hPa | 0 mm | - | 10 W/m² | - |
| 1788496227 | 16.67° C | 94% | 1019.9 hPa | 0 mm | - | 3 W/m² | - |
| 1788495622 | 16.11° C | 94% | 1020 hPa | 0 mm | - | 0 W/m² | - |
| 1788495026 | 16.11° C | 93% | 1019.9 hPa | 0 mm | - | 0 W/m² | - |
| 1788494422 | 16.11° C | 93% | 1020 hPa | 0 mm | - | 0 W/m² | - |
| 1788493818 | 16.11° C | 92% | 1019.9 hPa | 0 mm | - | 0 W/m² | - |
| 1788493228 | 16.67° C | 92% | 1019.9 hPa | 0 mm | - | 0 W/m² | - |
| 1788492624 | 16.67° C | 91% | 1020.1 hPa | 0 mm | - | 0 W/m² | - |
| 1788492020 | 17.22° C | 90% | 1020.3 hPa | 0 mm | - | 0 W/m² | - |
| 1788491416 | 17.22° C | 88% | 1020.2 hPa | 0 mm | - | 0 W/m² | - |
* Rain latest hour (hover to see other rain measurements)
** Current wind speed in m/s (hover to see current wind gust speed)